sensor_id;sensor_type;location;lat;lon;timestamp;P1;durP1;ratioP1;P2;durP2;ratioP2
22955;SDS011;40888;48.148;11.526;2023-04-25T00:01:15;2.83;;;2.30;;
22955;SDS011;40888;48.148;11.526;2023-04-25T00:03:41;6.00;;;2.60;;
22955;SDS011;40888;48.148;11.526;2023-04-25T00:06:06;3.23;;;2.53;;
22955;SDS011;40888;48.148;11.526;2023-04-25T00:08:33;3.10;;;2.27;;
22955;SDS011;40888;48.148;11.526;2023-04-25T00:10:59;2.20;;;2.00;;
22955;SDS011;40888;48.148;11.526;2023-04-25T00:13:25;2.20;;;2.00;;
22955;SDS011;40888;48.148;11.526;2023-04-25T00:15:52;2.80;;;2.30;;
22955;SDS011;40888;48.148;11.526;2023-04-25T00:18:25;2.17;;;1.90;;
22955;SDS011;40888;48.148;11.526;2023-04-25T00:20:54;2.40;;;2.03;;
22955;SDS011;40888;48.148;11.526;2023-04-25T00:23:19;2.70;;;2.10;;
22955;SDS011;40888;48.148;11.526;2023-04-25T00:25:46;2.43;;;2.20;;
22955;SDS011;40888;48.148;11.526;2023-04-25T00:28:13;2.50;;;2.30;;
22955;SDS011;40888;48.148;11.526;2023-04-25T00:30:40;2.57;;;2.00;;
22955;SDS011;40888;48.148;11.526;2023-04-25T00:33:06;2.43;;;2.23;;
22955;SDS011;40888;48.148;11.526;2023-04-25T00:35:32;3.20;;;2.57;;
22955;SDS011;40888;48.148;11.526;2023-04-25T00:37:58;3.50;;;2.37;;
22955;SDS011;40888;48.148;11.526;2023-04-25T00:40:24;3.83;;;2.20;;
22955;SDS011;40888;48.148;11.526;2023-04-25T00:42:51;2.67;;;2.43;;
22955;SDS011;40888;48.148;11.526;2023-04-25T00:45:18;2.47;;;2.10;;
22955;SDS011;40888;48.148;11.526;2023-04-25T00:47:44;2.37;;;2.17;;
22955;SDS011;40888;48.148;11.526;2023-04-25T00:50:11;2.70;;;2.10;;
22955;SDS011;40888;48.148;11.526;2023-04-25T00:52:37;2.20;;;2.00;;
22955;SDS011;40888;48.148;11.526;2023-04-25T00:55:05;2.30;;;2.10;;
22955;SDS011;40888;48.148;11.526;2023-04-25T00:57:32;2.93;;;2.10;;
22955;SDS011;40888;48.148;11.526;2023-04-25T00:59:58;3.07;;;2.57;;
22955;SDS011;40888;48.148;11.526;2023-04-25T01:02:24;2.70;;;2.27;;
22955;SDS011;40888;48.148;11.526;2023-04-25T01:04:52;2.17;;;1.90;;
22955;SDS011;40888;48.148;11.526;2023-04-25T01:07:18;2.50;;;2.30;;
22955;SDS011;40888;48.148;11.526;2023-04-25T01:09:45;2.63;;;2.37;;
22955;SDS011;40888;48.148;11.526;2023-04-25T01:12:11;3.27;;;2.27;;
22955;SDS011;40888;48.148;11.526;2023-04-25T01:14:37;2.33;;;2.10;;
22955;SDS011;40888;48.148;11.526;2023-04-25T01:17:03;2.83;;;1.93;;
22955;SDS011;40888;48.148;11.526;2023-04-25T01:19:29;3.93;;;2.10;;
22955;SDS011;40888;48.148;11.526;2023-04-25T01:21:55;2.37;;;2.20;;
22955;SDS011;40888;48.148;11.526;2023-04-25T01:24:21;2.93;;;2.10;;
22955;SDS011;40888;48.148;11.526;2023-04-25T01:26:47;2.30;;;2.10;;
22955;SDS011;40888;48.148;11.526;2023-04-25T01:29:17;2.27;;;2.00;;
22955;SDS011;40888;48.148;11.526;2023-04-25T01:31:44;3.87;;;2.23;;
22955;SDS011;40888;48.148;11.526;2023-04-25T01:34:11;2.63;;;2.13;;
22955;SDS011;40888;48.148;11.526;2023-04-25T01:36:40;4.93;;;2.20;;
22955;SDS011;40888;48.148;11.526;2023-04-25T01:39:06;3.13;;;2.20;;
22955;SDS011;40888;48.148;11.526;2023-04-25T01:41:32;2.27;;;2.10;;
22955;SDS011;40888;48.148;11.526;2023-04-25T01:43:59;2.83;;;1.97;;
22955;SDS011;40888;48.148;11.526;2023-04-25T01:46:26;2.40;;;2.20;;
22955;SDS011;40888;48.148;11.526;2023-04-25T01:48:52;2.87;;;2.10;;
22955;SDS011;40888;48.148;11.526;2023-04-25T01:51:18;3.53;;;2.20;;
22955;SDS011;40888;48.148;11.526;2023-04-25T01:53:44;2.70;;;2.37;;
22955;SDS011;40888;48.148;11.526;2023-04-25T01:56:10;2.90;;;2.00;;
22955;SDS011;40888;48.148;11.526;2023-04-25T01:58:36;3.83;;;2.30;;
22955;SDS011;40888;48.148;11.526;2023-04-25T02:01:02;2.60;;;2.40;;
22955;SDS011;40888;48.148;11.526;2023-04-25T02:03:28;6.63;;;4.57;;
22955;SDS011;40888;48.148;11.526;2023-04-25T02:05:55;3.23;;;2.60;;
22955;SDS011;40888;48.148;11.526;2023-04-25T02:08:20;3.17;;;2.30;;
22955;SDS011;40888;48.148;11.526;2023-04-25T02:10:46;4.33;;;2.40;;
22955;SDS011;40888;48.148;11.526;2023-04-25T02:13:12;3.93;;;2.40;;
22955;SDS011;40888;48.148;11.526;2023-04-25T02:15:38;3.43;;;2.50;;
22955;SDS011;40888;48.148;11.526;2023-04-25T02:18:03;2.83;;;2.30;;
22955;SDS011;40888;48.148;11.526;2023-04-25T02:20:31;3.20;;;2.90;;
22955;SDS011;40888;48.148;11.526;2023-04-25T02:22:57;3.20;;;2.67;;
22955;SDS011;40888;48.148;11.526;2023-04-25T02:25:23;3.50;;;2.40;;
22955;SDS011;40888;48.148;11.526;2023-04-25T02:27:48;3.23;;;2.43;;
22955;SDS011;40888;48.148;11.526;2023-04-25T02:30:15;3.13;;;2.40;;
22955;SDS011;40888;48.148;11.526;2023-04-25T02:32:41;4.67;;;2.50;;
22955;SDS011;40888;48.148;11.526;2023-04-25T02:35:07;3.27;;;2.70;;
22955;SDS011;40888;48.148;11.526;2023-04-25T02:37:33;4.03;;;2.67;;
22955;SDS011;40888;48.148;11.526;2023-04-25T02:40:00;4.53;;;2.60;;
22955;SDS011;40888;48.148;11.526;2023-04-25T02:42:26;3.23;;;2.90;;
22955;SDS011;40888;48.148;11.526;2023-04-25T02:44:52;3.77;;;2.60;;
22955;SDS011;40888;48.148;11.526;2023-04-25T02:47:18;2.43;;;2.20;;
22955;SDS011;40888;48.148;11.526;2023-04-25T02:49:44;2.63;;;2.30;;
22955;SDS011;40888;48.148;11.526;2023-04-25T02:52:10;2.80;;;2.43;;
22955;SDS011;40888;48.148;11.526;2023-04-25T02:54:37;6.03;;;2.63;;
22955;SDS011;40888;48.148;11.526;2023-04-25T02:57:03;3.10;;;2.23;;
22955;SDS011;40888;48.148;11.526;2023-04-25T02:59:29;2.97;;;2.67;;
22955;SDS011;40888;48.148;11.526;2023-04-25T03:01:55;2.40;;;2.30;;
22955;SDS011;40888;48.148;11.526;2023-04-25T03:04:21;2.97;;;2.27;;
22955;SDS011;40888;48.148;11.526;2023-04-25T03:06:49;3.93;;;2.50;;
22955;SDS011;40888;48.148;11.526;2023-04-25T03:09:15;3.47;;;2.60;;
22955;SDS011;40888;48.148;11.526;2023-04-25T03:11:41;5.80;;;2.87;;
22955;SDS011;40888;48.148;11.526;2023-04-25T03:14:07;3.23;;;2.27;;
22955;SDS011;40888;48.148;11.526;2023-04-25T03:16:33;4.13;;;2.50;;
22955;SDS011;40888;48.148;11.526;2023-04-25T03:18:59;5.90;;;2.30;;
22955;SDS011;40888;48.148;11.526;2023-04-25T03:21:24;3.60;;;2.60;;
22955;SDS011;40888;48.148;11.526;2023-04-25T03:23:51;3.50;;;2.80;;
22955;SDS011;40888;48.148;11.526;2023-04-25T03:26:17;2.47;;;2.10;;
22955;SDS011;40888;48.148;11.526;2023-04-25T03:28:43;2.70;;;2.37;;
22955;SDS011;40888;48.148;11.526;2023-04-25T03:31:09;3.57;;;2.30;;
22955;SDS011;40888;48.148;11.526;2023-04-25T03:33:34;4.40;;;2.40;;
22955;SDS011;40888;48.148;11.526;2023-04-25T03:36:00;3.43;;;2.23;;
22955;SDS011;40888;48.148;11.526;2023-04-25T03:38:26;2.30;;;2.10;;
22955;SDS011;40888;48.148;11.526;2023-04-25T03:40:52;2.73;;;1.93;;
22955;SDS011;40888;48.148;11.526;2023-04-25T03:43:19;3.67;;;2.40;;
22955;SDS011;40888;48.148;11.526;2023-04-25T03:45:44;3.00;;;2.27;;
22955;SDS011;40888;48.148;11.526;2023-04-25T03:48:11;2.57;;;2.13;;
22955;SDS011;40888;48.148;11.526;2023-04-25T03:50:36;2.20;;;2.00;;
22955;SDS011;40888;48.148;11.526;2023-04-25T03:53:02;2.40;;;2.20;;
22955;SDS011;40888;48.148;11.526;2023-04-25T03:55:28;2.33;;;1.90;;
22955;SDS011;40888;48.148;11.526;2023-04-25T03:57:53;2.30;;;2.03;;
22955;SDS011;40888;48.148;11.526;2023-04-25T04:00:19;2.20;;;2.00;;
22955;SDS011;40888;48.148;11.526;2023-04-25T04:02:45;1.97;;;1.60;;
22955;SDS011;40888;48.148;11.526;2023-04-25T04:05:11;3.23;;;1.90;;
22955;SDS011;40888;48.148;11.526;2023-04-25T04:07:36;3.80;;;1.83;;
22955;SDS011;40888;48.148;11.526;2023-04-25T04:10:08;2.43;;;1.90;;
22955;SDS011;40888;48.148;11.526;2023-04-25T04:12:35;2.97;;;2.00;;
22955;SDS011;40888;48.148;11.526;2023-04-25T04:15:02;2.23;;;2.03;;
22955;SDS011;40888;48.148;11.526;2023-04-25T04:17:31;1.90;;;1.70;;
22955;SDS011;40888;48.148;11.526;2023-04-25T04:19:57;5.43;;;1.70;;
22955;SDS011;40888;48.148;11.526;2023-04-25T04:22:23;3.17;;;2.00;;
22955;SDS011;40888;48.148;11.526;2023-04-25T04:24:50;2.57;;;2.00;;
22955;SDS011;40888;48.148;11.526;2023-04-25T04:30:56;2.20;;;2.00;;
22955;SDS011;40888;48.148;11.526;2023-04-25T04:33:22;3.30;;;1.97;;
22955;SDS011;40888;48.148;11.526;2023-04-25T04:35:48;3.60;;;2.40;;
22955;SDS011;40888;48.148;11.526;2023-04-25T04:38:17;4.93;;;1.90;;
22955;SDS011;40888;48.148;11.526;2023-04-25T04:40:43;2.30;;;2.10;;
22955;SDS011;40888;48.148;11.526;2023-04-25T04:43:09;2.37;;;2.17;;
22955;SDS011;40888;48.148;11.526;2023-04-25T04:45:35;3.00;;;2.30;;
22955;SDS011;40888;48.148;11.526;2023-04-25T04:48:05;3.07;;;2.20;;
22955;SDS011;40888;48.148;11.526;2023-04-25T04:50:32;2.33;;;2.13;;
22955;SDS011;40888;48.148;11.526;2023-04-25T04:52:58;4.17;;;2.37;;
22955;SDS011;40888;48.148;11.526;2023-04-25T04:55:23;3.93;;;2.10;;
22955;SDS011;40888;48.148;11.526;2023-04-25T04:57:49;4.30;;;2.53;;
22955;SDS011;40888;48.148;11.526;2023-04-25T05:00:15;2.67;;;2.17;;
22955;SDS011;40888;48.148;11.526;2023-04-25T05:02:42;3.93;;;2.50;;
22955;SDS011;40888;48.148;11.526;2023-04-25T05:05:08;2.70;;;2.33;;
22955;SDS011;40888;48.148;11.526;2023-04-25T05:07:34;2.50;;;2.30;;
22955;SDS011;40888;48.148;11.526;2023-04-25T05:10:00;3.40;;;2.20;;
22955;SDS011;40888;48.148;11.526;2023-04-25T05:12:25;6.30;;;3.20;;
22955;SDS011;40888;48.148;11.526;2023-04-25T05:14:51;4.93;;;2.57;;
22955;SDS011;40888;48.148;11.526;2023-04-25T05:17:17;6.20;;;3.20;;
22955;SDS011;40888;48.148;11.526;2023-04-25T05:19:42;4.13;;;2.80;;
22955;SDS011;40888;48.148;11.526;2023-04-25T05:22:08;3.40;;;2.70;;
22955;SDS011;40888;48.148;11.526;2023-04-25T05:24:34;2.70;;;2.30;;
22955;SDS011;40888;48.148;11.526;2023-04-25T05:26:59;5.73;;;2.57;;
22955;SDS011;40888;48.148;11.526;2023-04-25T05:29:25;5.83;;;2.50;;
22955;SDS011;40888;48.148;11.526;2023-04-25T05:31:51;2.83;;;2.50;;
22955;SDS011;40888;48.148;11.526;2023-04-25T05:34:17;5.67;;;3.07;;
22955;SDS011;40888;48.148;11.526;2023-04-25T05:36:43;4.60;;;2.73;;
22955;SDS011;40888;48.148;11.526;2023-04-25T05:39:09;3.47;;;2.60;;
22955;SDS011;40888;48.148;11.526;2023-04-25T05:41:35;4.57;;;2.60;;
22955;SDS011;40888;48.148;11.526;2023-04-25T05:44:01;5.13;;;2.50;;
22955;SDS011;40888;48.148;11.526;2023-04-25T05:46:27;5.17;;;2.87;;
22955;SDS011;40888;48.148;11.526;2023-04-25T05:48:53;3.73;;;2.50;;
22955;SDS011;40888;48.148;11.526;2023-04-25T05:51:18;6.17;;;3.07;;
22955;SDS011;40888;48.148;11.526;2023-04-25T05:53:44;2.53;;;2.30;;
22955;SDS011;40888;48.148;11.526;2023-04-25T05:56:10;4.60;;;2.53;;
22955;SDS011;40888;48.148;11.526;2023-04-25T05:58:36;7.43;;;3.20;;
22955;SDS011;40888;48.148;11.526;2023-04-25T06:01:01;3.97;;;2.70;;
22955;SDS011;40888;48.148;11.526;2023-04-25T06:03:28;6.30;;;2.90;;
22955;SDS011;40888;48.148;11.526;2023-04-25T06:05:53;5.50;;;3.43;;
22955;SDS011;40888;48.148;11.526;2023-04-25T06:08:19;5.07;;;3.97;;
22955;SDS011;40888;48.148;11.526;2023-04-25T06:10:45;7.33;;;4.07;;
22955;SDS011;40888;48.148;11.526;2023-04-25T06:13:11;5.63;;;4.10;;
22955;SDS011;40888;48.148;11.526;2023-04-25T06:15:37;5.33;;;4.27;;
22955;SDS011;40888;48.148;11.526;2023-04-25T06:18:02;8.27;;;5.10;;
22955;SDS011;40888;48.148;11.526;2023-04-25T06:20:28;7.43;;;4.87;;
22955;SDS011;40888;48.148;11.526;2023-04-25T06:22:54;8.77;;;4.77;;
22955;SDS011;40888;48.148;11.526;2023-04-25T06:25:20;6.47;;;5.00;;
22955;SDS011;40888;48.148;11.526;2023-04-25T06:27:46;7.20;;;5.50;;
22955;SDS011;40888;48.148;11.526;2023-04-25T06:30:12;5.97;;;5.03;;
22955;SDS011;40888;48.148;11.526;2023-04-25T06:32:38;5.67;;;5.13;;
22955;SDS011;40888;48.148;11.526;2023-04-25T06:35:04;8.80;;;5.97;;
22955;SDS011;40888;48.148;11.526;2023-04-25T06:37:30;7.00;;;6.30;;
22955;SDS011;40888;48.148;11.526;2023-04-25T06:39:56;9.23;;;6.30;;
22955;SDS011;40888;48.148;11.526;2023-04-25T06:42:21;7.07;;;5.90;;
22955;SDS011;40888;48.148;11.526;2023-04-25T06:44:48;8.37;;;6.10;;
22955;SDS011;40888;48.148;11.526;2023-04-25T06:47:15;6.77;;;6.07;;
22955;SDS011;40888;48.148;11.526;2023-04-25T06:49:40;9.83;;;6.33;;
22955;SDS011;40888;48.148;11.526;2023-04-25T06:52:07;7.50;;;6.60;;
22955;SDS011;40888;48.148;11.526;2023-04-25T06:54:32;7.70;;;6.90;;
22955;SDS011;40888;48.148;11.526;2023-04-25T06:57:01;10.47;;;7.47;;
22955;SDS011;40888;48.148;11.526;2023-04-25T06:59:27;8.17;;;7.07;;
22955;SDS011;40888;48.148;11.526;2023-04-25T07:01:53;6.40;;;5.50;;
22955;SDS011;40888;48.148;11.526;2023-04-25T07:04:18;7.83;;;5.33;;
22955;SDS011;40888;48.148;11.526;2023-04-25T07:06:44;9.07;;;4.93;;
22955;SDS011;40888;48.148;11.526;2023-04-25T07:09:12;5.83;;;4.97;;
22955;SDS011;40888;48.148;11.526;2023-04-25T07:11:38;4.70;;;4.20;;
22955;SDS011;40888;48.148;11.526;2023-04-25T07:14:04;7.80;;;4.47;;
22955;SDS011;40888;48.148;11.526;2023-04-25T07:16:29;6.43;;;4.00;;
22955;SDS011;40888;48.148;11.526;2023-04-25T07:18:55;4.97;;;4.00;;
22955;SDS011;40888;48.148;11.526;2023-04-25T07:21:21;5.40;;;4.10;;
22955;SDS011;40888;48.148;11.526;2023-04-25T07:23:46;4.67;;;3.43;;
22955;SDS011;40888;48.148;11.526;2023-04-25T07:26:12;5.83;;;3.50;;
22955;SDS011;40888;48.148;11.526;2023-04-25T07:28:38;4.67;;;3.33;;
22955;SDS011;40888;48.148;11.526;2023-04-25T07:31:04;5.50;;;3.40;;
22955;SDS011;40888;48.148;11.526;2023-04-25T07:33:30;4.63;;;3.33;;
22955;SDS011;40888;48.148;11.526;2023-04-25T07:35:56;3.77;;;3.20;;
22955;SDS011;40888;48.148;11.526;2023-04-25T07:38:22;5.10;;;3.73;;
22955;SDS011;40888;48.148;11.526;2023-04-25T07:40:48;4.13;;;3.50;;
22955;SDS011;40888;48.148;11.526;2023-04-25T07:43:14;5.03;;;3.80;;
22955;SDS011;40888;48.148;11.526;2023-04-25T07:45:45;4.40;;;3.00;;
22955;SDS011;40888;48.148;11.526;2023-04-25T07:48:17;5.43;;;3.00;;
22955;SDS011;40888;48.148;11.526;2023-04-25T07:50:43;5.33;;;3.47;;
22955;SDS011;40888;48.148;11.526;2023-04-25T07:53:10;3.93;;;2.80;;
22955;SDS011;40888;48.148;11.526;2023-04-25T07:55:36;5.13;;;3.43;;
22955;SDS011;40888;48.148;11.526;2023-04-25T07:58:05;4.10;;;2.90;;
22955;SDS011;40888;48.148;11.526;2023-04-25T08:00:31;4.07;;;3.20;;
22955;SDS011;40888;48.148;11.526;2023-04-25T08:02:57;6.07;;;3.83;;
22955;SDS011;40888;48.148;11.526;2023-04-25T08:05:23;7.67;;;3.43;;
22955;SDS011;40888;48.148;11.526;2023-04-25T08:07:49;3.50;;;3.00;;
22955;SDS011;40888;48.148;11.526;2023-04-25T08:10:15;4.30;;;2.93;;
22955;SDS011;40888;48.148;11.526;2023-04-25T08:12:41;5.83;;;2.77;;
22955;SDS011;40888;48.148;11.526;2023-04-25T08:15:07;5.33;;;2.70;;
22955;SDS011;40888;48.148;11.526;2023-04-25T08:17:33;4.73;;;3.20;;
22955;SDS011;40888;48.148;11.526;2023-04-25T08:19:59;4.53;;;2.60;;
22955;SDS011;40888;48.148;11.526;2023-04-25T08:22:25;4.73;;;3.20;;
22955;SDS011;40888;48.148;11.526;2023-04-25T08:24:51;3.27;;;2.63;;
22955;SDS011;40888;48.148;11.526;2023-04-25T08:27:17;4.27;;;2.47;;
22955;SDS011;40888;48.148;11.526;2023-04-25T08:29:43;6.37;;;2.93;;
22955;SDS011;40888;48.148;11.526;2023-04-25T08:32:09;3.23;;;2.73;;
22955;SDS011;40888;48.148;11.526;2023-04-25T08:34:35;3.57;;;2.23;;
22955;SDS011;40888;48.148;11.526;2023-04-25T08:37:02;2.73;;;2.47;;
22955;SDS011;40888;48.148;11.526;2023-04-25T08:39:29;2.77;;;2.40;;
22955;SDS011;40888;48.148;11.526;2023-04-25T08:41:55;3.20;;;2.17;;
22955;SDS011;40888;48.148;11.526;2023-04-25T08:44:22;2.97;;;2.20;;
22955;SDS011;40888;48.148;11.526;2023-04-25T08:46:48;3.70;;;2.20;;
22955;SDS011;40888;48.148;11.526;2023-04-25T08:49:15;1.90;;;1.70;;
22955;SDS011;40888;48.148;11.526;2023-04-25T08:51:44;2.43;;;2.23;;
22955;SDS011;40888;48.148;11.526;2023-04-25T08:54:14;2.80;;;1.80;;
22955;SDS011;40888;48.148;11.526;2023-04-25T08:56:41;2.33;;;1.80;;
22955;SDS011;40888;48.148;11.526;2023-04-25T08:59:10;1.63;;;1.50;;
22955;SDS011;40888;48.148;11.526;2023-04-25T09:01:37;1.47;;;1.37;;
22955;SDS011;40888;48.148;11.526;2023-04-25T09:04:03;2.27;;;1.30;;
22955;SDS011;40888;48.148;11.526;2023-04-25T09:06:29;1.87;;;1.40;;
22955;SDS011;40888;48.148;11.526;2023-04-25T09:09:05;2.63;;;1.60;;
22955;SDS011;40888;48.148;11.526;2023-04-25T09:11:35;2.27;;;1.53;;
22955;SDS011;40888;48.148;11.526;2023-04-25T09:14:20;2.50;;;1.50;;
22955;SDS011;40888;48.148;11.526;2023-04-25T09:19:26;2.07;;;1.90;;
22955;SDS011;40888;48.148;11.526;2023-04-25T09:21:54;2.60;;;1.57;;
22955;SDS011;40888;48.148;11.526;2023-04-25T09:24:34;1.57;;;1.47;;
22955;SDS011;40888;48.148;11.526;2023-04-25T09:27:02;3.23;;;1.60;;
22955;SDS011;40888;48.148;11.526;2023-04-25T09:29:33;4.23;;;1.70;;
22955;SDS011;40888;48.148;11.526;2023-04-25T09:32:14;1.60;;;1.50;;
22955;SDS011;40888;48.148;11.526;2023-04-25T09:34:46;4.90;;;1.50;;
22955;SDS011;40888;48.148;11.526;2023-04-25T09:37:21;2.00;;;1.33;;
22955;SDS011;40888;48.148;11.526;2023-04-25T09:39:58;2.63;;;1.30;;
22955;SDS011;40888;48.148;11.526;2023-04-25T09:42:27;3.93;;;2.13;;
22955;SDS011;40888;48.148;11.526;2023-04-25T09:44:54;2.23;;;1.60;;
22955;SDS011;40888;48.148;11.526;2023-04-25T09:47:22;1.70;;;1.60;;
22955;SDS011;40888;48.148;11.526;2023-04-25T09:49:51;7.67;;;1.80;;
22955;SDS011;40888;48.148;11.526;2023-04-25T09:52:18;3.13;;;1.80;;
22955;SDS011;40888;48.148;11.526;2023-04-25T09:54:45;3.70;;;1.73;;
22955;SDS011;40888;48.148;11.526;2023-04-25T09:57:22;6.83;;;1.77;;
22955;SDS011;40888;48.148;11.526;2023-04-25T10:02:19;1.80;;;1.60;;
22955;SDS011;40888;48.148;11.526;2023-04-25T10:04:47;1.93;;;1.60;;
22955;SDS011;40888;48.148;11.526;2023-04-25T10:07:16;4.77;;;1.73;;
22955;SDS011;40888;48.148;11.526;2023-04-25T10:09:46;2.07;;;1.80;;
22955;SDS011;40888;48.148;11.526;2023-04-25T10:12:14;1.77;;;1.67;;
22955;SDS011;40888;48.148;11.526;2023-04-25T10:14:41;2.40;;;2.00;;
22955;SDS011;40888;48.148;11.526;2023-04-25T10:17:08;2.17;;;1.83;;
22955;SDS011;40888;48.148;11.526;2023-04-25T10:19:36;2.33;;;1.80;;
22955;SDS011;40888;48.148;11.526;2023-04-25T10:22:07;1.93;;;1.60;;
22955;SDS011;40888;48.148;11.526;2023-04-25T10:24:35;2.37;;;1.50;;
22955;SDS011;40888;48.148;11.526;2023-04-25T10:27:02;4.20;;;1.60;;
22955;SDS011;40888;48.148;11.526;2023-04-25T10:29:28;2.10;;;1.90;;
22955;SDS011;40888;48.148;11.526;2023-04-25T10:31:54;2.07;;;1.83;;
22955;SDS011;40888;48.148;11.526;2023-04-25T10:34:24;3.97;;;1.80;;
22955;SDS011;40888;48.148;11.526;2023-04-25T10:37:02;1.73;;;1.40;;
22955;SDS011;40888;48.148;11.526;2023-04-25T10:39:28;4.00;;;1.23;;
22955;SDS011;40888;48.148;11.526;2023-04-25T10:41:57;2.60;;;1.10;;
22955;SDS011;40888;48.148;11.526;2023-04-25T10:44:30;2.13;;;1.30;;
22955;SDS011;40888;48.148;11.526;2023-04-25T10:46:57;1.57;;;1.20;;
22955;SDS011;40888;48.148;11.526;2023-04-25T10:54:41;2.30;;;1.40;;
22955;SDS011;40888;48.148;11.526;2023-04-25T10:57:28;2.63;;;1.80;;
22955;SDS011;40888;48.148;11.526;2023-04-25T10:59:58;5.13;;;1.97;;
22955;SDS011;40888;48.148;11.526;2023-04-25T11:02:31;1.90;;;1.50;;
22955;SDS011;40888;48.148;11.526;2023-04-25T11:05:01;2.10;;;1.70;;
22955;SDS011;40888;48.148;11.526;2023-04-25T11:07:37;2.50;;;1.33;;
22955;SDS011;40888;48.148;11.526;2023-04-25T11:10:09;2.13;;;1.33;;
22955;SDS011;40888;48.148;11.526;2023-04-25T11:12:35;1.33;;;1.20;;
22955;SDS011;40888;48.148;11.526;2023-04-25T11:15:04;2.13;;;1.17;;
22955;SDS011;40888;48.148;11.526;2023-04-25T11:17:31;1.60;;;1.30;;
22955;SDS011;40888;48.148;11.526;2023-04-25T11:19:58;2.53;;;1.13;;
22955;SDS011;40888;48.148;11.526;2023-04-25T11:22:24;1.00;;;1.00;;
22955;SDS011;40888;48.148;11.526;2023-04-25T11:24:51;1.30;;;0.93;;
22955;SDS011;40888;48.148;11.526;2023-04-25T11:27:17;1.90;;;1.30;;
22955;SDS011;40888;48.148;11.526;2023-04-25T11:29:42;1.87;;;1.10;;
22955;SDS011;40888;48.148;11.526;2023-04-25T11:32:08;2.07;;;1.33;;
22955;SDS011;40888;48.148;11.526;2023-04-25T11:34:34;1.67;;;1.57;;
22955;SDS011;40888;48.148;11.526;2023-04-25T11:37:00;1.37;;;1.27;;
22955;SDS011;40888;48.148;11.526;2023-04-25T11:39:27;1.40;;;1.30;;
22955;SDS011;40888;48.148;11.526;2023-04-25T11:41:54;2.93;;;1.40;;
22955;SDS011;40888;48.148;11.526;2023-04-25T11:44:20;2.93;;;1.77;;
22955;SDS011;40888;48.148;11.526;2023-04-25T11:46:47;2.17;;;1.47;;
22955;SDS011;40888;48.148;11.526;2023-04-25T11:49:13;2.13;;;1.60;;
22955;SDS011;40888;48.148;11.526;2023-04-25T11:51:44;2.13;;;1.80;;
22955;SDS011;40888;48.148;11.526;2023-04-25T11:54:13;2.80;;;2.00;;
22955;SDS011;40888;48.148;11.526;2023-04-25T11:56:43;2.87;;;1.70;;
22955;SDS011;40888;48.148;11.526;2023-04-25T11:59:09;2.37;;;1.50;;
22955;SDS011;40888;48.148;11.526;2023-04-25T12:01:36;1.50;;;1.40;;
22955;SDS011;40888;48.148;11.526;2023-04-25T12:04:13;1.70;;;0.90;;
22955;SDS011;40888;48.148;11.526;2023-04-25T12:06:40;1.13;;;1.03;;
22955;SDS011;40888;48.148;11.526;2023-04-25T12:09:07;1.07;;;1.07;;
22955;SDS011;40888;48.148;11.526;2023-04-25T12:11:41;1.20;;;1.17;;
22955;SDS011;40888;48.148;11.526;2023-04-25T12:14:07;2.00;;;1.20;;
22955;SDS011;40888;48.148;11.526;2023-04-25T12:16:40;1.30;;;1.30;;
22955;SDS011;40888;48.148;11.526;2023-04-25T12:19:07;2.60;;;1.27;;
22955;SDS011;40888;48.148;11.526;2023-04-25T12:21:33;1.30;;;1.20;;
22955;SDS011;40888;48.148;11.526;2023-04-25T12:24:15;1.73;;;1.33;;
22955;SDS011;40888;48.148;11.526;2023-04-25T12:26:50;0.90;;;0.90;;
22955;SDS011;40888;48.148;11.526;2023-04-25T12:29:28;1.57;;;1.47;;
22955;SDS011;40888;48.148;11.526;2023-04-25T12:31:55;1.60;;;1.27;;
22955;SDS011;40888;48.148;11.526;2023-04-25T12:34:21;1.73;;;1.50;;
22955;SDS011;40888;48.148;11.526;2023-04-25T12:36:48;1.93;;;1.53;;
22955;SDS011;40888;48.148;11.526;2023-04-25T12:39:17;1.43;;;1.27;;
22955;SDS011;40888;48.148;11.526;2023-04-25T12:41:51;1.83;;;1.40;;
22955;SDS011;40888;48.148;11.526;2023-04-25T12:44:20;1.20;;;1.10;;
22955;SDS011;40888;48.148;11.526;2023-04-25T12:46:46;1.90;;;1.50;;
22955;SDS011;40888;48.148;11.526;2023-04-25T12:49:13;1.50;;;1.10;;
22955;SDS011;40888;48.148;11.526;2023-04-25T12:51:39;1.60;;;1.50;;
22955;SDS011;40888;48.148;11.526;2023-04-25T12:54:05;1.40;;;1.30;;
22955;SDS011;40888;48.148;11.526;2023-04-25T12:56:32;2.40;;;1.37;;
22955;SDS011;40888;48.148;11.526;2023-04-25T12:58:58;2.93;;;1.30;;
22955;SDS011;40888;48.148;11.526;2023-04-25T13:01:24;2.40;;;1.27;;
22955;SDS011;40888;48.148;11.526;2023-04-25T13:03:50;1.43;;;1.33;;
22955;SDS011;40888;48.148;11.526;2023-04-25T13:06:16;1.33;;;1.00;;
22955;SDS011;40888;48.148;11.526;2023-04-25T13:08:43;0.77;;;0.73;;
22955;SDS011;40888;48.148;11.526;2023-04-25T13:11:09;1.87;;;1.00;;
22955;SDS011;40888;48.148;11.526;2023-04-25T13:13:36;1.17;;;1.10;;
22955;SDS011;40888;48.148;11.526;2023-04-25T13:16:05;1.27;;;1.20;;
22955;SDS011;40888;48.148;11.526;2023-04-25T13:18:32;1.10;;;0.97;;
22955;SDS011;40888;48.148;11.526;2023-04-25T13:20:58;1.57;;;1.20;;
22955;SDS011;40888;48.148;11.526;2023-04-25T13:23:25;1.57;;;1.47;;
22955;SDS011;40888;48.148;11.526;2023-04-25T13:25:51;2.00;;;1.13;;
22955;SDS011;40888;48.148;11.526;2023-04-25T13:28:18;1.63;;;1.53;;
22955;SDS011;40888;48.148;11.526;2023-04-25T13:30:44;1.87;;;1.40;;
22955;SDS011;40888;48.148;11.526;2023-04-25T13:33:10;1.60;;;1.50;;
22955;SDS011;40888;48.148;11.526;2023-04-25T13:35:37;1.53;;;1.40;;
22955;SDS011;40888;48.148;11.526;2023-04-25T13:38:03;2.00;;;1.60;;
22955;SDS011;40888;48.148;11.526;2023-04-25T13:40:29;1.97;;;1.27;;
22955;SDS011;40888;48.148;11.526;2023-04-25T13:42:57;1.10;;;1.00;;
22955;SDS011;40888;48.148;11.526;2023-04-25T13:45:22;1.30;;;1.20;;
22955;SDS011;40888;48.148;11.526;2023-04-25T13:47:48;1.40;;;1.30;;
22955;SDS011;40888;48.148;11.526;2023-04-25T13:50:14;1.23;;;1.13;;
22955;SDS011;40888;48.148;11.526;2023-04-25T13:52:41;1.10;;;1.10;;
22955;SDS011;40888;48.148;11.526;2023-04-25T13:55:07;2.77;;;1.20;;
22955;SDS011;40888;48.148;11.526;2023-04-25T13:57:33;1.70;;;1.60;;
22955;SDS011;40888;48.148;11.526;2023-04-25T14:00:00;1.57;;;1.47;;
22955;SDS011;40888;48.148;11.526;2023-04-25T14:02:30;1.70;;;1.60;;
22955;SDS011;40888;48.148;11.526;2023-04-25T14:04:55;3.83;;;1.60;;
22955;SDS011;40888;48.148;11.526;2023-04-25T14:07:21;2.33;;;1.77;;
22955;SDS011;40888;48.148;11.526;2023-04-25T14:09:47;2.07;;;1.73;;
22955;SDS011;40888;48.148;11.526;2023-04-25T14:12:13;1.60;;;1.50;;
22955;SDS011;40888;48.148;11.526;2023-04-25T14:14:38;1.73;;;1.63;;
22955;SDS011;40888;48.148;11.526;2023-04-25T14:17:04;2.20;;;1.50;;
22955;SDS011;40888;48.148;11.526;2023-04-25T14:19:31;1.90;;;1.80;;
22955;SDS011;40888;48.148;11.526;2023-04-25T14:21:57;2.10;;;1.90;;
22955;SDS011;40888;48.148;11.526;2023-04-25T14:24:22;1.50;;;1.40;;
22955;SDS011;40888;48.148;11.526;2023-04-25T14:26:48;1.67;;;1.57;;
22955;SDS011;40888;48.148;11.526;2023-04-25T14:29:14;1.30;;;1.20;;
22955;SDS011;40888;48.148;11.526;2023-04-25T14:31:40;0.90;;;0.90;;
22955;SDS011;40888;48.148;11.526;2023-04-25T14:34:06;0.90;;;0.90;;
22955;SDS011;40888;48.148;11.526;2023-04-25T14:36:32;1.30;;;1.20;;
22955;SDS011;40888;48.148;11.526;2023-04-25T14:38:58;1.23;;;1.13;;
22955;SDS011;40888;48.148;11.526;2023-04-25T14:41:25;1.43;;;1.33;;
22955;SDS011;40888;48.148;11.526;2023-04-25T14:43:52;1.23;;;1.13;;
22955;SDS011;40888;48.148;11.526;2023-04-25T14:46:18;1.83;;;1.50;;